Time;durP1;ratioP1;P1;durP2;ratioP2;P2;SDS_P1;SDS_P2;PMS_P1;PMS_P2;Temp;Humidity;BMP_temperature;BMP_pressure;BME280_temperature;BME280_humidity;BME280_pressure;Samples;Min_cycle;Max_cycle;Signal;HPM_P1;HPM_P2
2022/09/20 00:01:52;;;;;;;0.80;0.32;;;;;;;;;;7393943;19;20015;-74
2022/09/20 00:04:17;;;;;;;2.00;0.50;;;;;;;;;;7393544;19;20032;-75
2022/09/20 00:06:42;;;;;;;1.90;0.28;;;;;;;;;;7392793;19;20010;-75
2022/09/20 00:09:08;;;;;;;0.10;0.10;;;;;;;;;;7394626;19;20351;-74
2022/09/20 00:11:34;;;;;;;0.75;0.22;;;;;;;;;;7390879;19;20029;-74
2022/09/20 00:14:01;;;;;;;0.63;0.30;;;;;;;;;;7390943;19;20070;-74
2022/09/20 00:16:30;;;;;;;0.20;0.20;;;;;;;;;;7391552;19;20009;-74
2022/09/20 00:18:58;;;;;;;1.00;0.32;;;;;;;;;;7395199;19;20419;-75
2022/09/20 00:21:26;;;;;;;0.93;0.35;;;;;;;;;;7391165;19;20014;-74
2022/09/20 00:23:53;;;;;;;2.00;0.40;;;;;;;;;;7394954;19;20026;-74
2022/09/20 00:26:19;;;;;;;0.45;0.20;;;;;;;;;;7389511;19;20007;-74
2022/09/20 00:28:45;;;;;;;0.20;0.20;;;;;;;;;;7394571;19;19998;-75
2022/09/20 00:31:11;;;;;;;0.30;0.30;;;;;;;;;;7389311;19;20006;-75
2022/09/20 00:36:21;;;;;;;1.38;0.50;;;;;;;;;;7388003;19;20462;-75
2022/09/20 00:38:46;;;;;;;3.30;0.47;;;;;;;;;;7392943;19;20007;-74
2022/09/20 00:41:12;;;;;;;0.13;0.13;;;;;;;;;;7392583;19;19999;-74
2022/09/20 00:43:40;;;;;;;1.23;0.40;;;;;;;;;;7391131;19;20473;-74
2022/09/20 00:46:19;;;;;;;1.05;0.35;;;;;;;;;;7389062;19;20013;-74
2022/09/20 00:48:45;;;;;;;2.45;0.43;;;;;;;;;;7392417;19;20474;-74
2022/09/20 00:51:16;;;;;;;0.30;0.22;;;;;;;;;;7388337;19;20376;-74
2022/09/20 00:53:47;;;;;;;0.60;0.20;;;;;;;;;;7392597;19;20010;-75
2022/09/20 00:56:18;;;;;;;3.03;0.55;;;;;;;;;;7390509;19;20002;-74
2022/09/20 00:58:50;;;;;;;0.80;0.20;;;;;;;;;;7388563;19;20542;-74
2022/09/20 01:01:16;;;;;;;3.60;0.50;;;;;;;;;;7390738;19;20367;-74
2022/09/20 01:03:44;;;;;;;1.40;0.50;;;;;;;;;;7392479;19;20044;-74
2022/09/20 01:06:14;;;;;;;0.80;0.40;;;;;;;;;;7387373;19;20014;-74
2022/09/20 01:08:44;;;;;;;0.47;0.45;;;;;;;;;;7393410;19;20006;-75
2022/09/20 01:11:10;;;;;;;0.45;0.40;;;;;;;;;;7385799;19;20007;-74
2022/09/20 01:13:35;;;;;;;0.85;0.30;;;;;;;;;;7390026;19;20006;-74
2022/09/20 01:16:03;;;;;;;1.42;0.40;;;;;;;;;;7387491;19;20333;-74
2022/09/20 01:18:30;;;;;;;0.68;0.20;;;;;;;;;;7392748;19;19994;-75
2022/09/20 01:20:57;;;;;;;0.30;0.30;;;;;;;;;;7389390;19;20002;-74
2022/09/20 01:23:59;;;;;;;2.38;0.43;;;;;;;;;;7391860;19;20019;-74
2022/09/20 01:26:52;;;;;;;0.95;0.22;;;;;;;;;;7389692;19;20011;-74
2022/09/20 01:29:35;;;;;;;0.15;0.10;;;;;;;;;;7393754;19;20469;-74
2022/09/20 01:32:05;;;;;;;0.40;0.20;;;;;;;;;;7397622;19;20025;-74
2022/09/20 01:34:34;;;;;;;0.32;0.22;;;;;;;;;;7398844;19;20011;-74
2022/09/20 01:37:04;;;;;;;0.40;0.40;;;;;;;;;;7397229;19;20487;-74
2022/09/20 01:39:59;;;;;;;0.40;0.32;;;;;;;;;;7396113;19;20023;-74
2022/09/20 01:42:35;;;;;;;1.48;0.40;;;;;;;;;;7398640;19;20369;-74
2022/09/20 01:45:13;;;;;;;0.75;0.20;;;;;;;;;;7397403;19;20010;-74
2022/09/20 01:47:54;;;;;;;0.20;0.20;;;;;;;;;;7396147;19;20085;-74
2022/09/20 01:50:22;;;;;;;0.70;0.20;;;;;;;;;;7395687;19;20316;-74
2022/09/20 01:53:12;;;;;;;2.38;0.50;;;;;;;;;;7400267;19;20001;-74
2022/09/20 01:56:14;;;;;;;0.80;0.20;;;;;;;;;;7394818;19;19999;-74
2022/09/20 01:58:51;;;;;;;0.20;0.20;;;;;;;;;;7399169;19;20014;-74
2022/09/20 02:01:52;;;;;;;0.77;0.20;;;;;;;;;;7392555;19;20022;-74
2022/09/20 02:04:39;;;;;;;1.17;0.35;;;;;;;;;;7396513;19;20037;-74
2022/09/20 02:07:32;;;;;;;0.10;0.10;;;;;;;;;;7397380;19;20013;-75
2022/09/20 02:10:01;;;;;;;0.30;0.30;;;;;;;;;;7396710;19;20006;-74
2022/09/20 02:12:38;;;;;;;1.65;0.30;;;;;;;;;;7396770;19;20003;-74
2022/09/20 02:15:40;;;;;;;2.28;0.75;;;;;;;;;;7397703;19;20002;-74
2022/09/20 02:18:19;;;;;;;1.23;0.30;;;;;;;;;;7397619;19;20104;-74
2022/09/20 02:21:21;;;;;;;1.58;0.63;;;;;;;;;;7398453;19;20007;-74
2022/09/20 02:24:26;;;;;;;2.00;0.28;;;;;;;;;;7398811;19;19995;-74
2022/09/20 02:27:11;;;;;;;3.05;0.30;;;;;;;;;;7392585;19;20034;-74
2022/09/20 02:30:14;;;;;;;0.20;0.20;;;;;;;;;;7394531;19;20024;-74
2022/09/20 02:32:58;;;;;;;1.67;0.30;;;;;;;;;;7397409;19;20006;-74
2022/09/20 02:35:29;;;;;;;0.38;0.28;;;;;;;;;;7394268;19;20392;-74
2022/09/20 02:38:08;;;;;;;0.30;0.20;;;;;;;;;;7395397;19;20079;-74
2022/09/20 02:40:50;;;;;;;0.40;0.40;;;;;;;;;;7394450;19;20003;-73
2022/09/20 02:43:29;;;;;;;2.15;0.50;;;;;;;;;;7393249;19;20439;-74
2022/09/20 02:46:03;;;;;;;3.30;0.30;;;;;;;;;;7394932;19;19999;-74
2022/09/20 02:48:38;;;;;;;0.50;0.27;;;;;;;;;;7397245;19;20118;-73
2022/09/20 02:51:21;;;;;;;1.83;0.57;;;;;;;;;;7389844;19;20770;-73
2022/09/20 02:54:00;;;;;;;0.68;0.30;;;;;;;;;;7395465;19;20041;-73
2022/09/20 02:56:41;;;;;;;0.40;0.20;;;;;;;;;;7393884;19;20010;-73
2022/09/20 02:59:28;;;;;;;0.47;0.40;;;;;;;;;;7391714;19;20032;-74
2022/09/20 03:02:04;;;;;;;1.85;0.90;;;;;;;;;;7395511;19;20011;-73
2022/09/20 03:04:55;;;;;;;0.85;0.45;;;;;;;;;;7393907;19;20010;-73
2022/09/20 03:07:31;;;;;;;0.60;0.40;;;;;;;;;;7388812;19;20018;-73
2022/09/20 03:10:09;;;;;;;1.80;0.50;;;;;;;;;;7393137;19;20027;-75
2022/09/20 03:12:50;;;;;;;1.08;0.40;;;;;;;;;;7395438;19;20383;-73
2022/09/20 03:16:17;;;;;;;1.25;0.50;;;;;;;;;;7390690;19;20019;-73
2022/09/20 03:19:01;;;;;;;1.85;0.47;;;;;;;;;;7390766;19;20510;-73
2022/09/20 03:21:41;;;;;;;0.73;0.60;;;;;;;;;;7392297;19;20013;-73
2022/09/20 03:24:33;;;;;;;1.48;0.40;;;;;;;;;;7392445;19;20047;-73
2022/09/20 03:27:13;;;;;;;0.30;0.30;;;;;;;;;;7389654;19;20017;-74
2022/09/20 03:30:14;;;;;;;0.90;0.40;;;;;;;;;;7390309;19;20044;-75
2022/09/20 03:32:57;;;;;;;0.40;0.22;;;;;;;;;;7396247;19;20014;-74
2022/09/20 03:35:47;;;;;;;0.70;0.38;;;;;;;;;;7395392;19;20031;-75
2022/09/20 03:38:30;;;;;;;2.10;0.90;;;;;;;;;;7387903;19;20034;-74
2022/09/20 03:41:25;;;;;;;1.77;0.50;;;;;;;;;;7393919;19;19998;-75
2022/09/20 03:43:56;;;;;;;1.00;0.93;;;;;;;;;;7390762;19;20035;-75
2022/09/20 03:46:25;;;;;;;3.58;0.50;;;;;;;;;;7393951;19;20013;-75
2022/09/20 03:49:01;;;;;;;3.72;0.40;;;;;;;;;;7394109;19;20355;-75
2022/09/20 03:51:34;;;;;;;0.40;0.40;;;;;;;;;;7392308;19;20471;-74
2022/09/20 03:54:18;;;;;;;2.35;0.80;;;;;;;;;;7388932;19;20040;-75
2022/09/20 03:57:14;;;;;;;1.75;0.55;;;;;;;;;;7391913;19;20013;-76
2022/09/20 04:00:02;;;;;;;1.50;0.40;;;;;;;;;;7391639;19;20037;-74
2022/09/20 04:02:37;;;;;;;1.10;0.90;;;;;;;;;;7393289;19;20377;-74
2022/09/20 04:05:08;;;;;;;0.93;0.75;;;;;;;;;;7393111;19;20010;-74
2022/09/20 04:07:51;;;;;;;0.90;0.45;;;;;;;;;;7393888;19;20021;-75
2022/09/20 04:10:51;;;;;;;2.65;0.73;;;;;;;;;;7392606;19;20066;-75
2022/09/20 04:13:39;;;;;;;2.17;0.55;;;;;;;;;;7391839;19;20022;-75
2022/09/20 04:16:31;;;;;;;1.90;0.55;;;;;;;;;;7390675;19;20018;-74
2022/09/20 04:19:02;;;;;;;3.33;1.48;;;;;;;;;;7393175;19;20031;-74
2022/09/20 04:21:34;;;;;;;0.80;0.50;;;;;;;;;;7391025;19;20013;-75
2022/09/20 04:24:31;;;;;;;0.40;0.40;;;;;;;;;;7389975;19;20032;-75
2022/09/20 04:27:04;;;;;;;1.27;0.40;;;;;;;;;;7386336;19;20014;-74
2022/09/20 04:29:47;;;;;;;4.13;0.57;;;;;;;;;;7388194;19;20071;-75
2022/09/20 04:32:26;;;;;;;1.15;0.40;;;;;;;;;;7390780;19;20471;-75
2022/09/20 04:38:11;;;;;;;2.00;0.70;;;;;;;;;;7388821;19;20030;-75
2022/09/20 04:40:55;;;;;;;1.58;0.60;;;;;;;;;;7386322;19;20463;-75
2022/09/20 04:43:51;;;;;;;2.55;0.82;;;;;;;;;;7388093;19;20384;-75
2022/09/20 04:46:34;;;;;;;3.58;0.82;;;;;;;;;;7384560;19;20018;-75
2022/09/20 04:49:37;;;;;;;1.92;0.73;;;;;;;;;;7392057;19;20014;-75
2022/09/20 04:52:21;;;;;;;1.55;0.80;;;;;;;;;;7392479;19;20097;-75
2022/09/20 04:55:18;;;;;;;1.42;0.65;;;;;;;;;;7390879;19;20014;-74
2022/09/20 04:58:03;;;;;;;1.75;0.55;;;;;;;;;;7391012;19;20010;-74
2022/09/20 05:00:51;;;;;;;0.95;0.68;;;;;;;;;;7390976;19;19999;-75
2022/09/20 05:03:16;;;;;;;1.95;0.63;;;;;;;;;;7397062;19;20014;-75
2022/09/20 05:05:44;;;;;;;0.85;0.60;;;;;;;;;;7397683;19;20082;-75
2022/09/20 05:08:28;;;;;;;1.38;0.60;;;;;;;;;;7399282;19;20495;-76
2022/09/20 05:11:35;;;;;;;0.90;0.55;;;;;;;;;;7397477;19;20027;-75
2022/09/20 05:14:23;;;;;;;1.27;0.57;;;;;;;;;;7395607;19;20010;-75
2022/09/20 05:17:14;;;;;;;4.18;0.80;;;;;;;;;;7392908;19;20006;-75
2022/09/20 05:20:00;;;;;;;2.05;0.80;;;;;;;;;;7396951;19;20474;-76
2022/09/20 05:22:56;;;;;;;1.52;0.70;;;;;;;;;;7400111;19;20013;-76
2022/09/20 05:25:28;;;;;;;3.22;1.15;;;;;;;;;;7399598;19;20014;-76
2022/09/20 05:28:03;;;;;;;2.28;0.88;;;;;;;;;;7393448;19;20025;-77
2022/09/20 05:30:50;;;;;;;1.38;0.70;;;;;;;;;;7392097;19;20002;-75
2022/09/20 05:33:39;;;;;;;2.00;0.80;;;;;;;;;;7395544;19;20018;-76
2022/09/20 05:36:22;;;;;;;2.03;0.70;;;;;;;;;;7393537;19;20013;-75
2022/09/20 05:38:50;;;;;;;1.40;0.80;;;;;;;;;;7393047;19;20002;-74
2022/09/20 05:41:31;;;;;;;3.22;1.08;;;;;;;;;;7395471;19;20021;-75
2022/09/20 05:44:24;;;;;;;2.17;0.90;;;;;;;;;;7395292;19;20086;-74
2022/09/20 05:47:20;;;;;;;0.93;0.60;;;;;;;;;;7391227;19;20499;-72
2022/09/20 05:50:03;;;;;;;1.08;0.80;;;;;;;;;;7391768;19;20006;-74
2022/09/20 05:52:59;;;;;;;1.23;0.80;;;;;;;;;;7396043;19;20017;-74
2022/09/20 05:56:22;;;;;;;3.08;1.00;;;;;;;;;;7395347;19;20010;-75
2022/09/20 05:58:47;;;;;;;1.95;0.98;;;;;;;;;;7390640;19;20389;-75
2022/09/20 06:01:25;;;;;;;2.00;0.88;;;;;;;;;;7390519;19;19998;-75
2022/09/20 06:04:22;;;;;;;1.58;0.82;;;;;;;;;;7395883;19;20018;-75
2022/09/20 06:07:02;;;;;;;3.03;0.90;;;;;;;;;;7396044;19;19995;-75
2022/09/20 06:09:45;;;;;;;2.42;0.80;;;;;;;;;;7397843;19;20010;-76
2022/09/20 06:12:29;;;;;;;2.05;0.75;;;;;;;;;;7394758;19;20006;-75
2022/09/20 06:15:10;;;;;;;4.22;1.15;;;;;;;;;;7397906;19;20027;-75
2022/09/20 06:17:42;;;;;;;6.28;1.67;;;;;;;;;;7397566;19;20002;-75
2022/09/20 06:20:34;;;;;;;5.28;0.90;;;;;;;;;;7397349;19;20002;-76
2022/09/20 06:23:03;;;;;;;3.00;0.68;;;;;;;;;;7396717;19;19993;-76
2022/09/20 06:25:56;;;;;;;2.85;1.50;;;;;;;;;;7397386;19;20037;-76
2022/09/20 06:28:34;;;;;;;1.63;0.80;;;;;;;;;;7392272;19;20003;-76
2022/09/20 06:31:00;;;;;;;4.50;1.00;;;;;;;;;;7394381;19;20010;-76
2022/09/20 06:33:27;;;;;;;1.52;0.70;;;;;;;;;;7394161;19;20007;-76
2022/09/20 06:42:10;;;;;;;1.95;1.10;;;;;;;;;;7398875;19;20000;-75
2022/09/20 06:44:40;;;;;;;2.30;0.90;;;;;;;;;;7393291;19;20002;-76
2022/09/20 06:47:12;;;;;;;1.58;0.82;;;;;;;;;;7391525;19;20003;-76
2022/09/20 06:49:40;;;;;;;1.05;0.77;;;;;;;;;;7393536;19;20002;-76
2022/09/20 06:52:06;;;;;;;3.70;0.80;;;;;;;;;;7395470;19;20015;-76
2022/09/20 06:54:32;;;;;;;3.22;1.02;;;;;;;;;;7394428;19;20032;-76
2022/09/20 06:57:01;;;;;;;1.95;1.10;;;;;;;;;;7394269;19;19991;-76
2022/09/20 06:59:27;;;;;;;2.42;0.80;;;;;;;;;;7393313;19;19997;-76
2022/09/20 07:01:52;;;;;;;2.33;0.77;;;;;;;;;;7393612;19;19999;-76
2022/09/20 07:04:17;;;;;;;2.28;0.75;;;;;;;;;;7396043;19;20010;-76
2022/09/20 07:06:43;;;;;;;5.20;1.30;;;;;;;;;;7395393;19;19990;-76
2022/09/20 07:09:10;;;;;;;1.77;1.10;;;;;;;;;;7397011;19;20023;-77
2022/09/20 07:11:35;;;;;;;3.92;1.10;;;;;;;;;;7392457;19;20091;-76
2022/09/20 07:14:01;;;;;;;2.08;1.10;;;;;;;;;;7394714;19;20006;-76
2022/09/20 07:16:26;;;;;;;1.88;0.90;;;;;;;;;;7395153;19;20005;-76
2022/09/20 07:18:52;;;;;;;8.00;1.00;;;;;;;;;;7392982;19;20100;-76
2022/09/20 07:21:19;;;;;;;1.50;1.30;;;;;;;;;;7393445;19;20027;-76
2022/09/20 07:23:45;;;;;;;3.33;1.40;;;;;;;;;;7396169;19;19995;-76
2022/09/20 07:26:18;;;;;;;3.13;1.05;;;;;;;;;;7389462;19;20456;-77
2022/09/20 07:28:44;;;;;;;4.68;1.63;;;;;;;;;;7388566;19;20006;-77
2022/09/20 07:31:09;;;;;;;3.42;1.02;;;;;;;;;;7393298;19;20380;-76
2022/09/20 07:33:35;;;;;;;1.77;1.00;;;;;;;;;;7391814;19;20010;-77
2022/09/20 07:36:01;;;;;;;3.13;1.10;;;;;;;;;;7391171;19;20013;-76
2022/09/20 07:38:26;;;;;;;3.03;1.15;;;;;;;;;;7392161;19;20002;-77
2022/09/20 07:41:01;;;;;;;4.35;1.77;;;;;;;;;;7395926;19;20506;-77
2022/09/20 07:43:27;;;;;;;3.60;1.33;;;;;;;;;;7391644;19;20759;-77
2022/09/20 07:45:54;;;;;;;6.43;1.30;;;;;;;;;;7394529;19;20010;-76
2022/09/20 07:48:28;;;;;;;3.25;1.00;;;;;;;;;;7391523;19;20447;-77
2022/09/20 07:51:06;;;;;;;3.70;1.25;;;;;;;;;;7391966;19;20396;-77
2022/09/20 07:53:31;;;;;;;2.92;1.20;;;;;;;;;;7392896;19;20010;-76
2022/09/20 07:56:17;;;;;;;3.20;1.45;;;;;;;;;;7395061;19;20021;-77
2022/09/20 07:58:43;;;;;;;1.77;0.85;;;;;;;;;;7392940;19;20033;-77
2022/09/20 08:01:12;;;;;;;5.53;1.55;;;;;;;;;;7394067;19;20045;-76
2022/09/20 08:03:38;;;;;;;2.40;1.40;;;;;;;;;;7394804;19;20410;-76
2022/09/20 08:06:06;;;;;;;4.15;1.45;;;;;;;;;;7390295;19;19995;-76
2022/09/20 08:08:34;;;;;;;3.72;1.40;;;;;;;;;;7393587;19;20001;-77
2022/09/20 08:11:11;;;;;;;5.32;1.20;;;;;;;;;;7389212;19;20009;-77
2022/09/20 08:13:41;;;;;;;2.53;1.38;;;;;;;;;;7386809;19;20009;-77
2022/09/20 08:16:09;;;;;;;6.78;1.65;;;;;;;;;;7391789;19;20023;-77
2022/09/20 08:18:35;;;;;;;3.78;1.70;;;;;;;;;;7392079;19;20122;-76
2022/09/20 08:21:05;;;;;;;2.67;1.35;;;;;;;;;;7390517;19;20013;-76
2022/09/20 08:23:35;;;;;;;4.65;1.80;;;;;;;;;;7392229;19;20003;-77
2022/09/20 08:26:01;;;;;;;4.57;1.55;;;;;;;;;;7392452;19;20074;-78
2022/09/20 08:28:27;;;;;;;5.32;1.50;;;;;;;;;;7387052;19;20016;-77
2022/09/20 08:30:59;;;;;;;7.05;1.50;;;;;;;;;;7389744;19;20006;-77
2022/09/20 08:33:24;;;;;;;6.28;2.03;;;;;;;;;;7385903;19;20369;-76
2022/09/20 08:35:49;;;;;;;4.72;1.80;;;;;;;;;;7389551;19;20010;-71
2022/09/20 08:38:14;;;;;;;3.20;1.20;;;;;;;;;;7388666;19;20038;-71
2022/09/20 08:40:40;;;;;;;4.88;1.50;;;;;;;;;;7391687;19;20010;-71
2022/09/20 08:43:08;;;;;;;3.20;1.23;;;;;;;;;;7390132;19;20352;-71
2022/09/20 08:45:34;;;;;;;2.85;1.13;;;;;;;;;;7390080;19;20467;-71
2022/09/20 08:48:04;;;;;;;3.17;1.08;;;;;;;;;;7391849;19;19996;-71
2022/09/20 08:50:30;;;;;;;3.38;1.13;;;;;;;;;;7391610;19;20126;-72
2022/09/20 08:52:59;;;;;;;4.55;1.60;;;;;;;;;;7386560;19;20007;-71
2022/09/20 08:55:31;;;;;;;5.32;1.27;;;;;;;;;;7390555;19;20470;-71
2022/09/20 08:57:58;;;;;;;2.75;1.35;;;;;;;;;;7391851;19;20045;-71
2022/09/20 09:00:32;;;;;;;6.30;1.75;;;;;;;;;;7390674;19;20002;-71
2022/09/20 09:03:03;;;;;;;3.35;1.27;;;;;;;;;;7384847;19;20006;-71
2022/09/20 09:05:30;;;;;;;3.50;1.85;;;;;;;;;;7391242;19;20462;-72
2022/09/20 09:07:59;;;;;;;7.35;1.30;;;;;;;;;;7383582;19;20037;-72
2022/09/20 09:10:27;;;;;;;4.47;1.50;;;;;;;;;;7386718;19;20020;-72
2022/09/20 09:12:53;;;;;;;2.88;1.20;;;;;;;;;;7386349;19;20010;-71
2022/09/20 09:15:33;;;;;;;2.60;1.00;;;;;;;;;;7386246;19;20031;-71
2022/09/20 09:17:58;;;;;;;3.50;1.10;;;;;;;;;;7386966;19;20519;-71
2022/09/20 09:20:24;;;;;;;3.28;1.13;;;;;;;;;;7384938;19;20018;-71
2022/09/20 09:23:01;;;;;;;5.63;1.30;;;;;;;;;;7384561;19;20035;-71
2022/09/20 09:25:32;;;;;;;5.32;1.40;;;;;;;;;;7383972;19;20002;-71
2022/09/20 09:28:11;;;;;;;3.90;1.70;;;;;;;;;;7385437;19;20077;-71
2022/09/20 09:30:42;;;;;;;6.32;1.50;;;;;;;;;;7382350;19;20363;-71
2022/09/20 09:33:44;;;;;;;5.10;1.00;;;;;;;;;;7386369;19;20045;-71
2022/09/20 09:36:09;;;;;;;1.00;0.80;;;;;;;;;;7383397;19;20015;-71
2022/09/20 09:38:38;;;;;;;2.30;1.30;;;;;;;;;;7386170;19;20042;-71
2022/09/20 09:41:07;;;;;;;2.97;1.00;;;;;;;;;;7385836;19;19999;-71
2022/09/20 09:43:39;;;;;;;2.63;1.20;;;;;;;;;;7383005;19;20007;-71
2022/09/20 09:46:21;;;;;;;2.33;0.98;;;;;;;;;;7386029;19;20462;-71
2022/09/20 09:49:06;;;;;;;3.00;1.40;;;;;;;;;;7390629;19;20419;-71
2022/09/20 09:51:31;;;;;;;4.15;1.25;;;;;;;;;;7388140;19;20312;-71
2022/09/20 09:53:56;;;;;;;5.40;1.40;;;;;;;;;;7391447;19;20024;-72
2022/09/20 09:56:46;;;;;;;5.43;1.70;;;;;;;;;;7390694;19;20019;-71
2022/09/20 09:59:38;;;;;;;2.88;0.80;;;;;;;;;;7392169;19;20493;-71
2022/09/20 10:02:16;;;;;;;2.40;0.90;;;;;;;;;;7393583;19;20018;-72
2022/09/20 10:05:04;;;;;;;4.30;1.10;;;;;;;;;;7395131;19;20013;-71
2022/09/20 10:07:53;;;;;;;3.38;1.20;;;;;;;;;;7391642;19;20014;-72
2022/09/20 10:10:42;;;;;;;3.55;0.85;;;;;;;;;;7388151;19;20006;-72
2022/09/20 10:13:37;;;;;;;3.00;1.10;;;;;;;;;;7395607;19;20002;-72
2022/09/20 10:16:02;;;;;;;1.55;0.80;;;;;;;;;;7396115;19;20062;-71
2022/09/20 10:18:37;;;;;;;3.47;1.48;;;;;;;;;;7392660;19;20369;-71
2022/09/20 10:21:12;;;;;;;3.88;1.23;;;;;;;;;;7394896;19;20028;-71
2022/09/20 10:23:51;;;;;;;4.47;0.77;;;;;;;;;;7396263;19;19999;-71
2022/09/20 10:26:39;;;;;;;2.67;0.93;;;;;;;;;;7396041;19;20015;-71
2022/09/20 10:29:23;;;;;;;5.22;1.10;;;;;;;;;;7390676;19;20398;-71
2022/09/20 10:32:09;;;;;;;6.07;0.82;;;;;;;;;;7394143;19;20003;-71
2022/09/20 10:35:05;;;;;;;3.75;1.02;;;;;;;;;;7396042;19;20007;-71
2022/09/20 10:37:47;;;;;;;3.08;0.85;;;;;;;;;;7394381;19;20355;-71
2022/09/20 10:43:13;;;;;;;3.95;0.73;;;;;;;;;;7394571;19;19998;-71
2022/09/20 10:43:39;;;;;;;3.80;0.65;;;;;;;;;;7394295;19;20011;-71
2022/09/20 10:46:25;;;;;;;3.92;1.02;;;;;;;;;;7395257;19;20014;-71
2022/09/20 10:49:02;;;;;;;2.42;0.68;;;;;;;;;;7392618;19;20808;-71
2022/09/20 10:51:38;;;;;;;2.65;0.63;;;;;;;;;;7393680;19;20016;-71
2022/09/20 10:54:09;;;;;;;5.15;0.75;;;;;;;;;;7395644;19;19994;-71
2022/09/20 10:56:35;;;;;;;2.55;0.80;;;;;;;;;;7391316;19;20138;-71
2022/09/20 10:59:12;;;;;;;6.78;1.00;;;;;;;;;;7392262;19;20396;-71
2022/09/20 11:02:18;;;;;;;4.03;0.82;;;;;;;;;;7395021;19;20014;-71
2022/09/20 11:04:59;;;;;;;3.45;1.05;;;;;;;;;;7387322;19;20009;-71
2022/09/20 11:07:55;;;;;;;4.15;0.85;;;;;;;;;;7389424;19;20010;-71
2022/09/20 11:10:27;;;;;;;3.83;0.73;;;;;;;;;;7391231;19;20464;-71
2022/09/20 11:13:01;;;;;;;2.20;0.85;;;;;;;;;;7391185;19;20578;-71
2022/09/20 11:15:34;;;;;;;2.17;0.98;;;;;;;;;;7395236;19;20014;-71
2022/09/20 11:18:22;;;;;;;7.30;1.25;;;;;;;;;;7393497;19;19998;-71
2022/09/20 11:20:54;;;;;;;2.45;0.73;;;;;;;;;;7394078;19;20003;-71
2022/09/20 11:23:32;;;;;;;3.53;0.77;;;;;;;;;;7390699;19;20023;-71
2022/09/20 11:26:10;;;;;;;5.20;0.63;;;;;;;;;;7391614;19;20471;-71
2022/09/20 11:28:43;;;;;;;3.80;0.65;;;;;;;;;;7394143;19;20062;-71
2022/09/20 11:31:22;;;;;;;1.55;0.65;;;;;;;;;;7392190;19;20001;-71
2022/09/20 11:33:52;;;;;;;2.03;0.82;;;;;;;;;;7395587;19;20014;-71
2022/09/20 11:36:51;;;;;;;1.83;0.60;;;;;;;;;;7390656;19;19990;-71
2022/09/20 11:39:37;;;;;;;2.33;0.68;;;;;;;;;;7388707;19;20002;-71
2022/09/20 11:42:04;;;;;;;4.80;0.98;;;;;;;;;;7395310;19;20018;-71
2022/09/20 11:44:30;;;;;;;4.75;1.23;;;;;;;;;;7392982;19;20006;-71
2022/09/20 11:47:20;;;;;;;5.65;0.75;;;;;;;;;;7388815;19;20027;-71
2022/09/20 11:49:54;;;;;;;4.85;1.00;;;;;;;;;;7392652;19;20118;-71
2022/09/20 11:53:04;;;;;;;2.40;0.60;;;;;;;;;;7393247;19;20009;-71
2022/09/20 11:55:48;;;;;;;4.60;0.73;;;;;;;;;;7392614;19;20082;-71
2022/09/20 11:58:17;;;;;;;2.13;0.75;;;;;;;;;;7390990;19;20011;-71
2022/09/20 12:00:46;;;;;;;4.22;0.90;;;;;;;;;;7393609;19;19998;-71
2022/09/20 12:03:49;;;;;;;4.00;0.60;;;;;;;;;;7386963;19;20045;-71
2022/09/20 12:06:37;;;;;;;6.53;1.17;;;;;;;;;;7388590;19;20079;-71
2022/09/20 12:09:22;;;;;;;3.10;0.90;;;;;;;;;;7390827;19;20011;-71
2022/09/20 12:11:48;;;;;;;2.65;1.17;;;;;;;;;;7391630;19;20011;-71
2022/09/20 12:14:24;;;;;;;3.55;1.00;;;;;;;;;;7390566;19;19995;-71
2022/09/20 12:16:49;;;;;;;2.40;0.80;;;;;;;;;;7391911;19;20011;-71
2022/09/20 12:19:21;;;;;;;3.42;1.08;;;;;;;;;;7391219;19;20321;-71
2022/09/20 12:21:58;;;;;;;2.70;0.80;;;;;;;;;;7393601;19;20010;-71
2022/09/20 12:24:32;;;;;;;3.08;0.60;;;;;;;;;;7389534;19;20417;-71
2022/09/20 12:26:58;;;;;;;2.67;0.60;;;;;;;;;;7392036;19;20020;-71
2022/09/20 12:29:24;;;;;;;4.75;0.90;;;;;;;;;;7390611;19;20023;-70
2022/09/20 12:31:55;;;;;;;5.90;0.88;;;;;;;;;;7388101;19;20010;-71
2022/09/20 12:34:21;;;;;;;4.95;0.82;;;;;;;;;;7392499;19;20034;-71
2022/09/20 12:36:51;;;;;;;1.70;0.60;;;;;;;;;;7388220;19;20086;-71
2022/09/20 12:39:20;;;;;;;3.88;0.85;;;;;;;;;;7387803;19;19995;-71
2022/09/20 12:41:57;;;;;;;3.33;0.47;;;;;;;;;;7389565;19;20401;-71
2022/09/20 12:44:34;;;;;;;3.95;0.70;;;;;;;;;;7391027;19;20017;-71
2022/09/20 12:47:04;;;;;;;2.47;0.65;;;;;;;;;;7390200;19;20002;-71
2022/09/20 12:52:49;;;;;;;4.60;0.70;;;;;;;;;;7391569;19;19993;-71
2022/09/20 12:55:39;;;;;;;1.02;0.60;;;;;;;;;;7391808;19;20020;-71
2022/09/20 12:58:13;;;;;;;2.05;0.90;;;;;;;;;;7384287;19;20467;-71
2022/09/20 13:00:59;;;;;;;2.13;0.60;;;;;;;;;;7392265;19;20070;-71
2022/09/20 13:03:34;;;;;;;0.93;0.38;;;;;;;;;;7392797;19;20002;-71
2022/09/20 13:06:11;;;;;;;3.65;0.90;;;;;;;;;;7391416;19;20022;-71
2022/09/20 13:09:03;;;;;;;3.67;0.60;;;;;;;;;;7392077;19;20002;-71
2022/09/20 13:11:40;;;;;;;2.88;0.50;;;;;;;;;;7388028;19;21464;-71
2022/09/20 13:14:15;;;;;;;2.38;1.33;;;;;;;;;;7388561;19;20016;-71
2022/09/20 13:16:52;;;;;;;1.90;0.80;;;;;;;;;;7389941;19;20002;-71
2022/09/20 13:19:21;;;;;;;2.65;0.43;;;;;;;;;;7390698;19;20011;-70
2022/09/20 13:21:59;;;;;;;1.15;0.32;;;;;;;;;;7388293;19;20010;-71
2022/09/20 13:24:28;;;;;;;2.47;0.60;;;;;;;;;;7396513;19;20497;-71
2022/09/20 13:27:00;;;;;;;2.40;0.57;;;;;;;;;;7393715;19;19998;-72
2022/09/20 13:29:38;;;;;;;1.35;0.35;;;;;;;;;;7394740;19;20011;-70
2022/09/20 13:32:21;;;;;;;0.50;0.20;;;;;;;;;;7394996;19;20419;-72
2022/09/20 13:35:03;;;;;;;1.73;0.25;;;;;;;;;;7397936;19;20010;-71
2022/09/20 13:37:29;;;;;;;1.02;0.20;;;;;;;;;;7396148;19;20320;-71
2022/09/20 13:39:54;;;;;;;1.35;0.40;;;;;;;;;;7396358;19;20019;-72
2022/09/20 13:42:20;;;;;;;1.95;0.73;;;;;;;;;;7397287;19;20080;-71
2022/09/20 13:44:46;;;;;;;2.80;0.95;;;;;;;;;;7398556;19;20072;-71
2022/09/20 13:47:24;;;;;;;2.25;0.68;;;;;;;;;;7392535;19;20031;-72
2022/09/20 13:49:49;;;;;;;3.03;0.60;;;;;;;;;;7396917;19;20010;-71
2022/09/20 13:52:22;;;;;;;3.03;0.60;;;;;;;;;;7396897;19;20027;-72
2022/09/20 13:54:47;;;;;;;1.15;0.32;;;;;;;;;;7399095;19;20090;-71
2022/09/20 13:57:20;;;;;;;1.27;0.60;;;;;;;;;;7393976;19;19999;-71
2022/09/20 13:59:46;;;;;;;2.75;0.90;;;;;;;;;;7395707;19;20014;-72
2022/09/20 14:02:21;;;;;;;3.17;0.73;;;;;;;;;;7397390;19;20102;-71
2022/09/20 14:04:49;;;;;;;7.25;2.55;;;;;;;;;;7395457;19;20007;-71
2022/09/20 14:07:16;;;;;;;4.78;2.05;;;;;;;;;;7395253;19;20007;-72
2022/09/20 14:09:41;;;;;;;8.10;3.42;;;;;;;;;;7393429;19;20008;-71
2022/09/20 14:12:09;;;;;;;3.10;1.10;;;;;;;;;;7396658;19;19991;-71
2022/09/20 14:14:35;;;;;;;5.25;0.98;;;;;;;;;;7397320;19;20185;-71
2022/09/20 14:17:05;;;;;;;2.30;0.90;;;;;;;;;;7393553;19;20066;-72
2022/09/20 14:19:36;;;;;;;1.58;0.60;;;;;;;;;;7397394;19;20055;-71
2022/09/20 14:22:05;;;;;;;1.35;0.80;;;;;;;;;;7393603;19;20015;-71
2022/09/20 14:24:36;;;;;;;2.92;1.00;;;;;;;;;;7393486;19;20748;-72
2022/09/20 14:27:20;;;;;;;2.80;0.55;;;;;;;;;;7390445;19;19991;-72
2022/09/20 14:29:50;;;;;;;2.05;0.47;;;;;;;;;;7391990;19;20001;-72
2022/09/20 14:32:18;;;;;;;2.88;0.50;;;;;;;;;;7395727;19;20002;-72
2022/09/20 14:34:52;;;;;;;2.65;0.52;;;;;;;;;;7396398;19;20011;-72
2022/09/20 14:37:24;;;;;;;1.88;0.20;;;;;;;;;;7389926;19;20039;-83
2022/09/20 14:39:56;;;;;;;2.88;0.65;;;;;;;;;;7397191;19;20418;-83
2022/09/20 14:42:33;;;;;;;3.60;0.68;;;;;;;;;;7396758;19;19995;-83
2022/09/20 14:44:59;;;;;;;1.98;0.50;;;;;;;;;;7395837;19;20006;-83
2022/09/20 14:47:36;;;;;;;1.27;0.50;;;;;;;;;;7394797;19;20419;-83
2022/09/20 14:50:03;;;;;;;1.70;0.38;;;;;;;;;;7396140;19;20010;-83
2022/09/20 14:52:36;;;;;;;2.03;0.50;;;;;;;;;;7398205;19;19998;-82
2022/09/20 14:55:12;;;;;;;1.15;0.55;;;;;;;;;;7393487;19;20035;-83
2022/09/20 14:57:39;;;;;;;1.50;0.57;;;;;;;;;;7395059;19;20021;-82
2022/09/20 15:00:10;;;;;;;3.00;0.82;;;;;;;;;;7395578;19;20023;-83
2022/09/20 15:02:36;;;;;;;3.10;0.70;;;;;;;;;;7396916;19;20019;-83
2022/09/20 15:05:01;;;;;;;1.85;0.63;;;;;;;;;;7393687;19;20003;-83
2022/09/20 15:07:27;;;;;;;2.33;0.93;;;;;;;;;;7393145;19;20026;-83
2022/09/20 15:09:53;;;;;;;1.45;0.60;;;;;;;;;;7396165;19;20073;-84
2022/09/20 15:12:20;;;;;;;1.65;0.38;;;;;;;;;;7396553;19;20013;-84
2022/09/20 15:14:46;;;;;;;2.05;0.60;;;;;;;;;;7396733;19;20032;-83
2022/09/20 15:17:19;;;;;;;1.35;0.50;;;;;;;;;;7393575;19;20006;-84
2022/09/20 15:19:46;;;;;;;1.38;0.85;;;;;;;;;;7396466;19;20304;-83
2022/09/20 15:22:12;;;;;;;2.63;0.80;;;;;;;;;;7393236;19;20034;-82
2022/09/20 15:24:38;;;;;;;4.47;1.15;;;;;;;;;;7392490;19;19998;-83
2022/09/20 15:27:04;;;;;;;1.02;0.52;;;;;;;;;;7391290;19;20517;-82
2022/09/20 15:29:29;;;;;;;0.60;0.40;;;;;;;;;;7392753;19;20075;-82
2022/09/20 15:31:55;;;;;;;2.03;0.63;;;;;;;;;;7396002;19;19983;-82
2022/09/20 15:34:20;;;;;;;1.67;0.63;;;;;;;;;;7396485;19;19991;-82
2022/09/20 15:36:45;;;;;;;3.10;0.55;;;;;;;;;;7393894;19;19995;-82
2022/09/20 15:39:11;;;;;;;1.95;0.55;;;;;;;;;;7394149;19;20069;-83
2022/09/20 15:41:36;;;;;;;2.58;0.52;;;;;;;;;;7395624;19;20126;-83
2022/09/20 15:44:03;;;;;;;2.08;0.70;;;;;;;;;;7389079;19;19991;-81
2022/09/20 15:46:29;;;;;;;0.50;0.35;;;;;;;;;;7384098;19;20473;-78
2022/09/20 15:48:58;;;;;;;2.53;0.50;;;;;;;;;;7390434;19;20073;-77
2022/09/20 15:51:23;;;;;;;4.15;1.05;;;;;;;;;;7387807;19;20467;-76